Terminal Aerodrome Forecast
Issued by NWS Huntsville, AL

Home | Current Version | Previous Version | Text Only | Print | Product List | Glossary On
Versions: 1 2 3 4 5 6 7 8 9 10 11 12 13
000
FTUS44 KHUN 251120
TAFHSV
TAF
KHSV 251120Z 2512/2612 VRB03KT P6SM SKC
     FM251900 26005KT P6SM SCT040
     FM260900 VRB02KT 5SM BR SKC=

USA.gov is the U.S. government's official web portal to all federal, state and local government web resources and services.